Filia Joy — 3FIN9 — position and weather

sailwx.info

Track history (hours):
 
Tides and Currents Weather Stations Pressure Air Temp Water Temp Dewpoint Dewpoint Depression Visibility Wind Speed Wind Dir Waves Ship Positions

Filia Joy

Last reported at 2016-Jun-20 08:25 UTC. Time now 2016-Jul-30 11:08 UTC.
Position N 30°52' E 032°19'.
Warning: this ship's position is 40 days out of date.

Length 190 m; draft 11.7 m.

Type: Cargo ship. MMSI: 371999000.

Date/timePositionNaut miles runAvg speedWind from/ knotsBaromVisibWave heightAir tempDewpointWater temp
2016-Jun-20 08:25N 30°52' E 032°19'11 8.8
2016-Jun-20 07:08N 31°03' E 032°19'6 8.8
2016-Jun-20 06:30N 31°09' E 032°18'7 7.4
2016-Jun-20 05:33N 31°16' E 032°19'7 0.9
2016-Jun-19 22:21N 31°23' E 032°19'0 0.0
2016-Jun-19 21:33N 31°23' E 032°19'0 0.0
2016-Jun-19 16:06N 31°23' E 032°19'0 0.0
2016-Jun-19 12:31N 31°23' E 032°19'0 0.0
2016-Jun-19 11:10N 31°23' E 032°19'117 8.4
2016-Jun-18 21:15N 32°12' E 030°14'60312.9
2016-Jun-16 22:33N 34°58' E 018°39'1412.7
2016-Jun-16 21:25N 35°02' E 018°22'2612.3
2016-Jun-16 19:20N 35°09' E 017°52'1012.3
2016-Jun-16 18:32N 35°12' E 017°40'1212.1
2016-Jun-16 17:33N 35°15' E 017°26'1212.5
2016-Jun-16 16:33N 35°18' E 017°12'1313.0
2016-Jun-16 15:33N 35°22' E 016°56'1613.2
2016-Jun-16 14:20N 35°26' E 016°37'1012.8
2016-Jun-16 13:33N 35°29' E 016°26'1312.8
2016-Jun-16 12:33N 35°32' E 016°10'1312.9
2016-Jun-16 11:33N 35°36' E 015°55'1312.6
2016-Jun-16 10:33N 35°39' E 015°40'1312.7
2016-Jun-16 09:34N 35°43' E 015°25'1312.8
2016-Jun-16 08:33N 35°47' E 015°10'1312.9
2016-Jun-16 07:33N 35°50' E 014°55'8 7.6
2016-Jun-16 06:33N 35°52' E 014°46'0 0.0
2016-Jun-16 05:33N 35°52' E 014°46'0 0.0
2016-Jun-16 04:33N 35°52' E 014°46'0 0.1
2016-Jun-16 03:33N 35°52' E 014°46'0 0.1
2016-Jun-16 02:33N 35°52' E 014°46'0 0.0
2016-Jun-16 01:33N 35°52' E 014°46'0 0.0
2016-Jun-16 00:33N 35°52' E 014°46'0 0.0
2016-Jun-15 23:33N 35°52' E 014°46'2 1.7
2016-Jun-15 22:33N 35°52' E 014°44'9 9.5
2016-Jun-15 21:33N 35°59' E 014°35'1111.1
2016-Jun-15 20:33N 36°05' E 014°24'1212.1
2016-Jun-15 19:33N 36°11' E 014°11'1212.0
2016-Jun-15 18:33N 36°16' E 013°57'1212.0
2016-Jun-15 17:33N 36°21' E 013°44'1212.0
2016-Jun-15 16:33N 36°26' E 013°30'1212.1
2016-Jun-15 15:33N 36°31' E 013°16'1312.5
2016-Jun-15 14:33N 36°38' E 013°03'1313.2
2016-Jun-15 13:32N 36°44' E 012°48'3912.6
2016-Jun-15 10:25N 37°01' E 012°04'1212.4
2016-Jun-15 09:28N 37°06' E 011°51'1112.3
2016-Jun-15 08:33N 37°11' E 011°38'2712.9
2016-Jun-15 06:27N 37°23' E 011°08'39712.8
2016-Jun-13 23:19N 36°57' E 002°50'4413.5
2016-Jun-13 20:04N 36°49' E 001°57'713.6
2016-Jun-13 19:32N 36°48' E 001°48'1313.7
2016-Jun-13 18:33N 36°45' E 001°31'1413.8
2016-Jun-13 17:33N 36°42' E 001°14'1414.0
2016-Jun-13 16:33N 36°39' E 000°57'1414.2
2016-Jun-13 15:33N 36°33' E 000°41'2813.9
2016-Jun-13 13:33N 36°18' E 000°12'35 5.6
2016-Jun-13 07:23N 35°49' W 000°10'0 0.0
2016-Jun-13 06:32N 35°49' W 000°10'0 0.0
2016-Jun-13 00:14N 35°49' W 000°10'0 0.0
2016-Jun-12 23:23N 35°49' W 000°10'0 0.0
2016-Jun-12 22:32N 35°49' W 000°10'0 0.0
2016-Jun-12 21:32N 35°49' W 000°10'0 0.0
2016-Jun-12 17:23N 35°49' W 000°10'0 0.0
2016-Jun-12 16:29N 35°49' W 000°10'0 0.0
2016-Jun-12 15:29N 35°49' W 000°10'0 0.0
2016-Jun-12 14:29N 35°49' W 000°10'0 0.0
2016-Jun-12 13:23N 35°49' W 000°10'0 0.0
2016-Jun-12 12:29N 35°49' W 000°10'0 0.0
2016-Jun-10 18:29N 35°49' W 000°10'0 0.0
2016-Jun-10 17:29N 35°49' W 000°10'0 0.0
2016-Jun-10 16:29N 35°49' W 000°10'0 0.0
2016-Jun-10 15:29N 35°49' W 000°10'0 0.0
2016-Jun-10 14:29N 35°49' W 000°10'0 0.0
2016-Jun-10 13:29N 35°49' W 000°10'0 0.0
2016-Jun-10 12:29N 35°49' W 000°10'  
Track history (hours):
 
Tides and Currents Weather Stations Pressure Air Temp Water Temp Dewpoint Dewpoint Depression Visibility Wind Speed Wind Dir Waves Ship Positions

Filia Joy

Last reported at 2016-Jun-20 08:25 UTC. Time now 2016-Jul-30 11:08 UTC.
Position N 30°52' E 032°19'.
Warning: this ship's position is 40 days out of date.

Length 190 m; draft 11.7 m.

Type: Cargo ship. MMSI: 371999000.

Date/timePositionNaut miles runAvg speedWind from/ knotsBaromVisibWave heightAir tempDewpointWater temp
2016-Jun-20 08:25N 30°52' E 032°19'11 8.8
2016-Jun-20 07:08N 31°03' E 032°19'6 8.8
2016-Jun-20 06:30N 31°09' E 032°18'7 7.4
2016-Jun-20 05:33N 31°16' E 032°19'7 0.9
2016-Jun-19 22:21N 31°23' E 032°19'0 0.0
2016-Jun-19 21:33N 31°23' E 032°19'0 0.0
2016-Jun-19 16:06N 31°23' E 032°19'0 0.0
2016-Jun-19 12:31N 31°23' E 032°19'0 0.0
2016-Jun-19 11:10N 31°23' E 032°19'117 8.4
2016-Jun-18 21:15N 32°12' E 030°14'60312.9
2016-Jun-16 22:33N 34°58' E 018°39'1412.7
2016-Jun-16 21:25N 35°02' E 018°22'2612.3
2016-Jun-16 19:20N 35°09' E 017°52'1012.3
2016-Jun-16 18:32N 35°12' E 017°40'1212.1
2016-Jun-16 17:33N 35°15' E 017°26'1212.5
2016-Jun-16 16:33N 35°18' E 017°12'1313.0
2016-Jun-16 15:33N 35°22' E 016°56'1613.2
2016-Jun-16 14:20N 35°26' E 016°37'1012.8
2016-Jun-16 13:33N 35°29' E 016°26'1312.8
2016-Jun-16 12:33N 35°32' E 016°10'1312.9
2016-Jun-16 11:33N 35°36' E 015°55'1312.6
2016-Jun-16 10:33N 35°39' E 015°40'1312.7
2016-Jun-16 09:34N 35°43' E 015°25'1312.8
2016-Jun-16 08:33N 35°47' E 015°10'1312.9
2016-Jun-16 07:33N 35°50' E 014°55'8 7.6
2016-Jun-16 06:33N 35°52' E 014°46'0 0.0
2016-Jun-16 05:33N 35°52' E 014°46'0 0.0
2016-Jun-16 04:33N 35°52' E 014°46'0 0.1
2016-Jun-16 03:33N 35°52' E 014°46'0 0.1
2016-Jun-16 02:33N 35°52' E 014°46'0 0.0
2016-Jun-16 01:33N 35°52' E 014°46'0 0.0
2016-Jun-16 00:33N 35°52' E 014°46'0 0.0
2016-Jun-15 23:33N 35°52' E 014°46'2 1.7
2016-Jun-15 22:33N 35°52' E 014°44'9 9.5
2016-Jun-15 21:33N 35°59' E 014°35'1111.1
2016-Jun-15 20:33N 36°05' E 014°24'1212.1
2016-Jun-15 19:33N 36°11' E 014°11'1212.0
2016-Jun-15 18:33N 36°16' E 013°57'1212.0
2016-Jun-15 17:33N 36°21' E 013°44'1212.0
2016-Jun-15 16:33N 36°26' E 013°30'1212.1
2016-Jun-15 15:33N 36°31' E 013°16'1312.5
2016-Jun-15 14:33N 36°38' E 013°03'1313.2
2016-Jun-15 13:32N 36°44' E 012°48'3912.6
2016-Jun-15 10:25N 37°01' E 012°04'1212.4
2016-Jun-15 09:28N 37°06' E 011°51'1112.3
2016-Jun-15 08:33N 37°11' E 011°38'2712.9
2016-Jun-15 06:27N 37°23' E 011°08'39712.8
2016-Jun-13 23:19N 36°57' E 002°50'4413.5
2016-Jun-13 20:04N 36°49' E 001°57'713.6
2016-Jun-13 19:32N 36°48' E 001°48'1313.7
2016-Jun-13 18:33N 36°45' E 001°31'1413.8
2016-Jun-13 17:33N 36°42' E 001°14'1414.0
2016-Jun-13 16:33N 36°39' E 000°57'1414.2
2016-Jun-13 15:33N 36°33' E 000°41'2813.9
2016-Jun-13 13:33N 36°18' E 000°12'35 5.6
2016-Jun-13 07:23N 35°49' W 000°10'0 0.0
2016-Jun-13 06:32N 35°49' W 000°10'0 0.0
2016-Jun-13 00:14N 35°49' W 000°10'0 0.0
2016-Jun-12 23:23N 35°49' W 000°10'0 0.0
2016-Jun-12 22:32N 35°49' W 000°10'0 0.0
2016-Jun-12 21:32N 35°49' W 000°10'0 0.0
2016-Jun-12 17:23N 35°49' W 000°10'0 0.0
2016-Jun-12 16:29N 35°49' W 000°10'0 0.0
2016-Jun-12 15:29N 35°49' W 000°10'0 0.0
2016-Jun-12 14:29N 35°49' W 000°10'0 0.0
2016-Jun-12 13:23N 35°49' W 000°10'0 0.0
2016-Jun-12 12:29N 35°49' W 000°10'0 0.0
2016-Jun-10 18:29N 35°49' W 000°10'0 0.0
2016-Jun-10 17:29N 35°49' W 000°10'0 0.0
2016-Jun-10 16:29N 35°49' W 000°10'0 0.0
2016-Jun-10 15:29N 35°49' W 000°10'0 0.0
2016-Jun-10 14:29N 35°49' W 000°10'0 0.0
2016-Jun-10 13:29N 35°49' W 000°10'0 0.0
2016-Jun-10 12:29N 35°49' W 000°10'  

Dump ship's entire track history